ADDS METAR Data INFO
IDs: Format: Raw Decoded Include TAF

Data at: 0728 UTC 23 Sep 2017

KTPL 230651Z AUTO 16006KT 10SM CLR 23/21 A2994 RMK AO2 SLP139 T02330211
KTPL 230551Z AUTO 15007KT 10SM CLR 24/21 A2995 RMK AO2 SLP141 T02440211 10306 20244 403330228 51008
KTPL 230451Z AUTO 15007KT 10SM CLR 25/21 A2995 RMK AO2 SLP142 T02500211
KTPL 230351Z AUTO 15010KT 10SM CLR 26/21 A2993 RMK AO2 SLP137 T02610211
KTPL 230251Z AUTO 14012KT 10SM CLR 27/21 A2992 RMK AO2 SLP135 T02720206 53009
KTPL 230151Z AUTO 13008KT 10SM CLR 28/20 A2992 RMK AO2 SLP132 T02780200
KTPL 230051Z AUTO 13011KT 10SM CLR 29/20 A2990 RMK AO2 SLP126 T02890200
KTPL 222351Z AUTO 13014KT 10SM CLR 31/20 A2990 RMK AO2 SLP125 T03060200 10333 20306 56006
KTPL 222251Z AUTO 12013G18KT 10SM FEW050 32/20 A2990 RMK AO2 SLP124 T03170200
KTPL 222051Z AUTO 16008G18KT 120V190 10SM SCT049 33/20 A2991 RMK AO2 SLP129 T03280200 56019
KTPL 221951Z AUTO 16014G19KT 10SM BKN049 32/21 A2993 RMK AO2 SLP135 T03220206
KTPL 221851Z AUTO 14012G19KT 10SM SCT039 SCT049 32/22 A2995 RMK AO2 SLP144 T03220217
KTPL 221751Z AUTO 17010KT 10SM FEW034 32/22 A2997 RMK AO2 SLP150 T03170217 10317 20239 58009
KTPL 221651Z AUTO 18009KT 10SM SCT024 BKN031 28/22 A2999 RMK AO2 SLP157 T02830222
KTPL 221633Z AUTO 16007KT 10SM BKN022 29/23 A2999 RMK AO2
KTPL 221626Z AUTO 15009KT 10SM SCT020 29/23 A2999 RMK AO2
KTPL 221615Z AUTO 16010KT 10SM BKN018 29/23 A2999 RMK AO2
KTPL 221604Z AUTO 15011KT 10SM FEW015 SCT020 28/23 A3000 RMK AO2
KTPL 221551Z AUTO 16012KT 10SM BKN013 27/23 A3000 RMK AO2 SLP160 T02720228
KTPL 221539Z AUTO 18011KT 10SM BKN011 OVC016 27/23 A3000 RMK AO2
KTPL 221451Z AUTO 15009KT 10SM OVC007 25/23 A3000 RMK AO2 SLP162 T02500228 51012
KTPL 221351Z AUTO 16010KT 10SM OVC007 24/23 A2999 RMK AO2 SLP157 T02440228
KTPL 221338Z AUTO 15008KT 10SM BKN007 OVC011 24/23 A2999 RMK AO2 CIG 005V009
KTPL 221312Z AUTO 14008KT 10SM OVC005 24/23 A2998 RMK AO2
KTPL 221251Z AUTO 15008KT 9SM OVC007 24/23 A2998 RMK AO2 SLP153 T02390228
KTPL 221151Z AUTO 15006KT 10SM OVC007 24/23 A2996 RMK AO2 SLP148 T02390228 10239 20228 53003
KTPL 221135Z AUTO 17007KT 10SM OVC007 24/23 A2996 RMK AO2
KTPL 221051Z AUTO 16007KT 10SM OVC005 23/23 A2995 RMK AO2 SLP142 T02330228
KTPL 220951Z AUTO 17008KT 10SM OVC005 23/22 A2995 RMK AO2 SLP143 T02330222
KTPL 220916Z AUTO 17010KT 10SM OVC005 23/22 A2995 RMK AO2
KTPL 220851Z AUTO 17009KT 10SM OVC007 23/22 A2995 RMK AO2 SLP143 T02330222 50000
KTPL 220751Z AUTO 17006KT 10SM OVC007 23/22 A2996 RMK AO2 SLP144 T02280217
KTPL 220710Z AUTO 16006KT 10SM BKN009 23/22 A2996 RMK AO2
KTPL 220702Z AUTO 16008KT 10SM SCT009 23/22 A2996 RMK AO2
KTPL 220651Z AUTO 17008KT 10SM FEW011 23/22 A2996 RMK AO2 SLP145 T02280217
KTPL 220551Z AUTO 15009KT 10SM CLR 23/21 A2995 RMK AO2 SLP143 T02330211 10294 20233 403500233 51003 TSNO
KTPL 220535Z AUTO 15011KT 10SM SCT016 SCT021 23/21 A2995 RMK AO2
KTPL 220451Z AUTO 14010KT 10SM OVC016 24/22 A2995 RMK AO2 SLP144 T02440217 TSNO
KTPL 220436Z AUTO 14013KT 10SM BKN016 24/22 A2996 RMK AO2 TSNO
KTPL 220351Z AUTO 14011KT 10SM CLR 24/22 A2995 RMK AO2 SLP143 T02440222
KTPL 220251Z AUTO 13008KT 10SM CLR 25/22 A2995 RMK AO2 SLP142 T02500222 53021
KTPL 220151Z AUTO 17010KT 10SM CLR 26/23 A2992 RMK AO2 SLP134 T02610228
KTPL 220051Z AUTO 15011KT 10SM CLR 28/23 A2990 RMK AO2 SLP126 T02780228
KTPL 212351Z AUTO 15014KT 10SM CLR 29/22 A2988 RMK AO2 PK WND 15026/2336 SLP120 T02940222 10350 20294 53002
KTPL 212251Z AUTO 13014G20KT 10SM FEW055 33/22 A2987 RMK AO2 SLP114 T03330217
KTPL 212151Z AUTO 12010KT 10SM CLR 33/21 A2987 RMK AO2 SLP113 T03280211
KTPL 212051Z AUTO 16013G16KT 10SM FEW055 34/22 A2988 RMK AO2 SLP116 T03440217 56025
KTPL 211951Z AUTO 15011G15KT 10SM BKN050 BKN065 35/22 A2990 RMK AO2 SLP123 T03500217